Siam — SGIP — position and weather

sailwx.info

Track history (hours):
 
Tides and Currents Weather Stations Pressure Air Temp Water Temp Dewpoint Dewpoint Depression Visibility Wind Speed Wind Dir Waves Ship Positions

Siam

Last reported at 2014-Nov-22 17:30 UTC. Time now 2014-Nov-22 17:49 UTC.
Position N 55°60' E 012°45'.

Length 22 m.

Type: Passenger vessel. MMSI: 265572320.

Date/timePositionNaut miles runAvg speedWind from/ knotsBaromVisibWave heightAir tempDewpointWater temp
2014-Nov-22 17:30N 55°60' E 012°45'0 0.0
2014-Nov-22 16:33N 55°60' E 012°45'0 0.0
2014-Nov-22 15:33N 55°60' E 012°45'0 0.0
2014-Nov-22 14:33N 55°60' E 012°45'4 4.3
2014-Nov-22 13:33N 55°56' E 012°40'1 1.1
2014-Nov-22 12:33N 55°55' E 012°39'0 0.2
2014-Nov-22 11:33N 55°55' E 012°39'3 3.5
2014-Nov-22 10:33N 55°58' E 012°39'1 0.9
2014-Nov-22 09:32N 55°59' E 012°39'0 0.3
2014-Nov-22 08:31N 55°59' E 012°39'0 0.1
2014-Nov-22 07:31N 55°59' E 012°39'3 3.2
2014-Nov-22 06:33N 55°60' E 012°45'0 0.0
2014-Nov-22 05:33N 55°60' E 012°45'0 0.0
2014-Nov-22 04:33N 55°60' E 012°45'0 0.0
2014-Nov-22 03:33N 55°60' E 012°45'0 0.0
2014-Nov-22 02:33N 55°60' E 012°45'0 0.0
2014-Nov-22 01:33N 55°60' E 012°45'0 0.0
2014-Nov-22 00:33N 55°60' E 012°45'0 0.0
2014-Nov-21 23:33N 55°60' E 012°45'0 0.0
2014-Nov-21 22:30N 55°60' E 012°45'0 0.0
2014-Nov-21 21:33N 55°60' E 012°45'0 0.0
2014-Nov-21 20:33N 55°60' E 012°45'0 0.0
2014-Nov-21 19:33N 55°60' E 012°45'0 0.0
2014-Nov-21 18:25N 55°60' E 012°45'0 0.0
2014-Nov-21 17:34N 55°60' E 012°45'0 0.0
2014-Nov-21 16:34N 55°60' E 012°45'0 0.0
2014-Nov-21 15:34N 55°60' E 012°45'0 0.0
2014-Nov-21 14:31N 55°60' E 012°45'0 0.0
2014-Nov-21 13:31N 55°60' E 012°45'0 0.0
2014-Nov-21 12:31N 55°60' E 012°45'0 0.0
2014-Nov-21 11:31N 55°60' E 012°45'0 0.0
2014-Nov-21 10:31N 55°60' E 012°45'0 0.0
2014-Nov-21 09:31N 55°60' E 012°45'0 0.0
2014-Nov-21 08:31N 55°60' E 012°45'0 0.0
2014-Nov-21 07:31N 55°60' E 012°45'0 0.0
2014-Nov-21 06:31N 55°60' E 012°45'0 0.0
2014-Nov-21 05:31N 55°60' E 012°45'0 0.0
2014-Nov-21 04:31N 55°60' E 012°45'0 0.0
2014-Nov-21 03:31N 55°60' E 012°45'0 0.0
2014-Nov-21 02:28N 55°60' E 012°45'0 0.0
2014-Nov-21 01:31N 55°60' E 012°45'0 0.0
2014-Nov-21 00:31N 55°60' E 012°45'0 0.0
2014-Nov-20 23:31N 55°60' E 012°45'0 0.0
2014-Nov-20 22:31N 55°60' E 012°45'0 0.0
2014-Nov-20 21:31N 55°60' E 012°45'0 0.0
2014-Nov-20 20:28N 55°60' E 012°45'0 0.0
2014-Nov-20 19:31N 55°60' E 012°45'0 0.0
2014-Nov-20 18:31N 55°60' E 012°45'0 0.0
2014-Nov-20 17:31N 55°60' E 012°45'0 0.0
2014-Nov-20 16:31N 55°60' E 012°45'0 0.0
2014-Nov-20 15:31N 55°60' E 012°45'0 0.0
2014-Nov-20 14:31N 55°60' E 012°45'0 0.0
2014-Nov-20 13:31N 55°60' E 012°45'0 0.0
2014-Nov-20 10:31N 55°60' E 012°45'0 0.0
2014-Nov-20 09:31N 55°60' E 012°45'0 0.0
2014-Nov-20 08:31N 55°60' E 012°45'0 0.0
2014-Nov-20 07:31N 55°60' E 012°45'0 0.0
2014-Nov-20 06:31N 55°60' E 012°45'0 0.0
2014-Nov-20 05:31N 55°60' E 012°45'0 0.0
2014-Nov-20 04:31N 55°60' E 012°45'0 0.0
2014-Nov-20 03:31N 55°60' E 012°45'0 0.0
2014-Nov-20 02:31N 55°60' E 012°45'0 0.0
2014-Nov-20 01:31N 55°60' E 012°45'0 0.0
2014-Nov-20 00:31N 55°60' E 012°45'0 0.0
2014-Nov-19 23:31N 55°60' E 012°45'0 0.0
2014-Nov-19 22:31N 55°60' E 012°45'0 0.0
2014-Nov-19 21:31N 55°60' E 012°45'0 0.0
2014-Nov-19 20:31N 55°60' E 012°45'0 0.0
2014-Nov-19 19:31N 55°60' E 012°45'0 0.0
2014-Nov-19 18:31N 55°60' E 012°45'0 0.0
2014-Nov-19 17:31N 55°60' E 012°45'0 0.0
2014-Nov-19 16:31N 55°60' E 012°45'0 0.0
2014-Nov-19 15:31N 55°60' E 012°45'0 0.0
2014-Nov-19 14:31N 55°60' E 012°45'0 0.0
2014-Nov-19 13:31N 55°60' E 012°45'0 0.0
2014-Nov-19 12:31N 55°60' E 012°45'0 0.0
2014-Nov-19 11:31N 55°60' E 012°45'0 0.0
2014-Nov-19 10:31N 55°60' E 012°45'0 0.0
2014-Nov-19 09:31N 55°60' E 012°45'0 0.0
2014-Nov-19 08:31N 55°60' E 012°45'0 0.0
2014-Nov-19 07:31N 55°60' E 012°45'0 0.0
2014-Nov-19 06:31N 55°60' E 012°45'0 0.0
2014-Nov-19 05:25N 55°60' E 012°45'0 0.0
2014-Nov-19 04:31N 55°60' E 012°45'0 0.0
2014-Nov-19 03:31N 55°60' E 012°45'0 0.0
2014-Nov-19 02:31N 55°60' E 012°45'0 0.0
2014-Nov-19 01:28N 55°60' E 012°45'0 0.0
2014-Nov-19 00:31N 55°60' E 012°45'0 0.0
2014-Nov-18 23:31N 55°60' E 012°45'0 0.0
2014-Nov-18 22:31N 55°60' E 012°45'0 0.0
2014-Nov-18 21:31N 55°60' E 012°45'0 0.0
2014-Nov-18 20:31N 55°60' E 012°45'0 0.0
2014-Nov-18 19:31N 55°60' E 012°45'0 0.0
2014-Nov-18 18:31N 55°60' E 012°45'0 0.0
2014-Nov-18 17:31N 55°60' E 012°45'0 0.0
2014-Nov-18 16:31N 55°60' E 012°45'0 0.0
2014-Nov-18 15:31N 55°60' E 012°45'0 0.0
2014-Nov-18 14:31N 55°60' E 012°45'0 0.0
2014-Nov-18 13:31N 55°60' E 012°45'0 0.0
2014-Nov-18 12:25N 55°60' E 012°45'0 0.0
2014-Nov-18 11:31N 55°60' E 012°45'0 0.0
2014-Nov-18 10:31N 55°60' E 012°45'0 0.0
2014-Nov-18 09:31N 55°60' E 012°45'0 0.0
2014-Nov-18 08:31N 55°60' E 012°45'0 0.0
2014-Nov-18 07:31N 55°60' E 012°45'0 0.0
2014-Nov-18 06:31N 55°60' E 012°45'0 0.0
2014-Nov-18 05:31N 55°60' E 012°45'0 0.0
2014-Nov-18 04:31N 55°60' E 012°45'0 0.0
2014-Nov-18 03:31N 55°60' E 012°45'0 0.0
2014-Nov-18 02:31N 55°60' E 012°45'0 0.0
2014-Nov-18 01:31N 55°60' E 012°45'0 0.0
2014-Nov-18 00:31N 55°60' E 012°45'0 0.0
2014-Nov-17 23:31N 55°60' E 012°45'0 0.0
2014-Nov-17 22:28N 55°60' E 012°45'0 0.0
2014-Nov-17 21:28N 55°60' E 012°45'0 0.0
2014-Nov-17 20:31N 55°60' E 012°45'0 0.0
2014-Nov-17 19:31N 55°60' E 012°45'0 0.0
2014-Nov-17 18:31N 55°60' E 012°45'0 0.0
2014-Nov-17 17:31N 55°60' E 012°45'0 0.0
2014-Nov-17 16:31N 55°60' E 012°45'0 0.0
2014-Nov-17 15:31N 55°60' E 012°45'0 0.0
2014-Nov-17 14:31N 55°60' E 012°45'0 0.0
2014-Nov-17 13:31N 55°60' E 012°45'0 0.0
2014-Nov-17 12:31N 55°60' E 012°45'0 0.0
2014-Nov-17 11:31N 55°60' E 012°45'0 0.0
2014-Nov-17 10:31N 55°60' E 012°45'0 0.0
2014-Nov-17 09:31N 55°60' E 012°45'0 0.0
2014-Nov-17 08:31N 55°60' E 012°45'0 0.0
2014-Nov-17 07:31N 55°60' E 012°45'0 0.0
2014-Nov-17 06:31N 55°60' E 012°45'0 0.0
2014-Nov-17 05:31N 55°60' E 012°45'0 0.0
2014-Nov-17 04:32N 55°60' E 012°45'0 0.0
2014-Nov-17 03:32N 55°60' E 012°45'0 0.0
2014-Nov-17 02:31N 55°60' E 012°45'0 0.0
2014-Nov-17 01:32N 55°60' E 012°45'0 0.0
2014-Nov-17 00:32N 55°60' E 012°45'0 0.0
2014-Nov-16 23:32N 55°60' E 012°45'0 0.0
2014-Nov-16 22:32N 55°60' E 012°45'0 0.0
2014-Nov-16 21:32N 55°60' E 012°45'0 0.0
2014-Nov-16 20:32N 55°60' E 012°45'0 0.0
2014-Nov-16 19:32N 55°60' E 012°45'0 0.0
2014-Nov-16 18:32N 55°60' E 012°45'0 0.0
2014-Nov-16 17:32N 55°60' E 012°45'0 0.0
2014-Nov-16 16:11N 55°60' E 012°45'0 0.0
2014-Nov-16 15:32N 55°60' E 012°45'0 0.0
2014-Nov-16 14:32N 55°60' E 012°45'0 0.0
2014-Nov-16 13:32N 55°60' E 012°45'0 0.0
2014-Nov-16 12:32N 55°60' E 012°45'0 0.0
2014-Nov-16 11:32N 55°60' E 012°45'2 1.9
2014-Nov-16 10:33N 55°58' E 012°43'2 1.6
2014-Nov-16 09:33N 55°56' E 012°43'0 0.4
2014-Nov-16 08:32N 55°56' E 012°44'2 2.2
2014-Nov-16 07:33N 55°58' E 012°43'2 1.6
2014-Nov-16 06:31N 55°60' E 012°45'0 0.0
2014-Nov-16 05:31N 55°60' E 012°45'0 0.0
2014-Nov-16 04:28N 55°60' E 012°45'0 0.0
2014-Nov-16 03:31N 55°60' E 012°45'0 0.0
2014-Nov-16 02:31N 55°60' E 012°45'0 0.0
2014-Nov-16 01:31N 55°60' E 012°45'0 0.0
2014-Nov-16 00:31N 55°60' E 012°45'0 0.0
2014-Nov-15 23:31N 55°60' E 012°45'0 0.0
2014-Nov-15 22:31N 55°60' E 012°45'0 0.0
2014-Nov-15 21:31N 55°60' E 012°45'0 0.0
2014-Nov-15 20:31N 55°60' E 012°45'0 0.0
2014-Nov-15 19:28N 55°60' E 012°45'0 0.0
2014-Nov-15 18:28N 55°60' E 012°45'0 0.0
2014-Nov-15 17:31N 55°60' E 012°45'0 0.0
2014-Nov-15 16:25N 55°60' E 012°45'0 0.3
2014-Nov-15 15:33N 55°59' E 012°44'2 2.0
2014-Nov-15 14:33N 56°01' E 012°42'2 2.1
2014-Nov-15 13:33N 55°59' E 012°39'0 0.0
2014-Nov-15 12:34N 55°59' E 012°39'3 2.9
2014-Nov-15 11:33N 55°59' E 012°45'0 0.1
2014-Nov-15 10:32N 55°60' E 012°45'0 0.0
2014-Nov-15 09:32N 55°60' E 012°45'0 0.0
2014-Nov-15 08:32N 55°60' E 012°45'0 0.0
2014-Nov-15 07:29N 55°60' E 012°45'0 0.0
2014-Nov-15 06:32N 55°60' E 012°45'0 0.0
2014-Nov-15 05:32N 55°60' E 012°45'0 0.0
2014-Nov-15 04:32N 55°60' E 012°45'0 0.0
2014-Nov-15 03:32N 55°60' E 012°45'0 0.0
2014-Nov-15 02:29N 55°60' E 012°45'0 0.0
2014-Nov-15 01:32N 55°60' E 012°45'0 0.0
2014-Nov-15 00:32N 55°60' E 012°45'0 0.0
2014-Nov-14 23:32N 55°60' E 012°45'0 0.0
2014-Nov-14 22:32N 55°60' E 012°45'0 0.0
2014-Nov-14 21:32N 55°60' E 012°45'0 0.0
2014-Nov-14 20:32N 55°60' E 012°45'0 0.0
2014-Nov-14 19:32N 55°60' E 012°45'0 0.0
2014-Nov-14 18:32N 55°60' E 012°45'0 0.0
2014-Nov-14 17:32N 55°60' E 012°45'0 0.0
2014-Nov-14 16:32N 55°60' E 012°45'0 0.0
2014-Nov-14 15:32N 55°60' E 012°45'0 0.0
2014-Nov-14 14:32N 55°60' E 012°45'0 0.0
2014-Nov-14 12:32N 55°60' E 012°45'0 0.0
2014-Nov-14 11:32N 55°60' E 012°45'0 0.0
2014-Nov-14 10:32N 55°60' E 012°45'0 0.0
2014-Nov-14 09:32N 55°60' E 012°45'0 0.0
2014-Nov-14 08:32N 55°60' E 012°45'0 0.0
2014-Nov-14 07:32N 55°60' E 012°45'0 0.0
2014-Nov-14 06:32N 55°60' E 012°45'0 0.0
2014-Nov-14 05:32N 55°60' E 012°45'0 0.0
2014-Nov-14 04:32N 55°60' E 012°45'0 0.0
2014-Nov-14 03:32N 55°60' E 012°45'0 0.0
2014-Nov-14 02:32N 55°60' E 012°45'0 0.0
2014-Nov-14 01:32N 55°60' E 012°45'0 0.0
2014-Nov-14 00:32N 55°60' E 012°45'0 0.0
2014-Nov-13 23:32N 55°60' E 012°45'0 0.0
2014-Nov-13 22:32N 55°60' E 012°45'0 0.0
2014-Nov-13 21:32N 55°60' E 012°45'0 0.0
2014-Nov-13 20:32N 55°60' E 012°45'0 0.0
2014-Nov-13 19:32N 55°60' E 012°45'0 0.0
2014-Nov-13 18:32N 55°60' E 012°45'0 0.0
2014-Nov-13 17:32N 55°60' E 012°45'0 0.0
2014-Nov-13 16:32N 55°60' E 012°45'0 0.0
2014-Nov-13 15:32N 55°60' E 012°45'0 0.0
2014-Nov-13 14:32N 55°60' E 012°45'0 0.0
2014-Nov-13 13:32N 55°60' E 012°45'0 0.0
2014-Nov-13 12:32N 55°60' E 012°45'0 0.0
2014-Nov-13 11:32N 55°60' E 012°45'0 0.0
2014-Nov-13 10:32N 55°60' E 012°45'0 0.0
2014-Nov-13 09:32N 55°60' E 012°45'0 0.0
2014-Nov-13 08:32N 55°60' E 012°45'0 0.0
2014-Nov-13 07:29N 55°60' E 012°45'0 0.0
2014-Nov-13 06:32N 55°60' E 012°45'0 0.0
2014-Nov-13 05:32N 55°60' E 012°45'0 0.0
2014-Nov-13 04:32N 55°60' E 012°45'0 0.0
2014-Nov-13 03:32N 55°60' E 012°45'0 0.0
2014-Nov-13 02:32N 55°60' E 012°45'0 0.0
2014-Nov-13 01:32N 55°60' E 012°45'0 0.0
2014-Nov-13 00:32N 55°60' E 012°45'0 0.0
2014-Nov-12 23:32N 55°60' E 012°45'0 0.0
2014-Nov-12 22:32N 55°60' E 012°45'0 0.0
2014-Nov-12 21:32N 55°60' E 012°45'0 0.0
2014-Nov-12 20:32N 55°60' E 012°45'0 0.0
2014-Nov-12 19:32N 55°60' E 012°45'0 0.0
2014-Nov-12 18:32N 55°60' E 012°45'0 0.0
2014-Nov-12 17:32N 55°60' E 012°45'  
Track history (hours):
 
Tides and Currents Weather Stations Pressure Air Temp Water Temp Dewpoint Dewpoint Depression Visibility Wind Speed Wind Dir Waves Ship Positions

Siam

Last reported at 2014-Nov-22 17:30 UTC. Time now 2014-Nov-22 17:49 UTC.
Position N 55°60' E 012°45'.

Length 22 m.

Type: Passenger vessel. MMSI: 265572320.

Date/timePositionNaut miles runAvg speedWind from/ knotsBaromVisibWave heightAir tempDewpointWater temp
2014-Nov-22 17:30N 55°60' E 012°45'0 0.0
2014-Nov-22 16:33N 55°60' E 012°45'0 0.0
2014-Nov-22 15:33N 55°60' E 012°45'0 0.0
2014-Nov-22 14:33N 55°60' E 012°45'4 4.3
2014-Nov-22 13:33N 55°56' E 012°40'1 1.1
2014-Nov-22 12:33N 55°55' E 012°39'0 0.2
2014-Nov-22 11:33N 55°55' E 012°39'3 3.5
2014-Nov-22 10:33N 55°58' E 012°39'1 0.9
2014-Nov-22 09:32N 55°59' E 012°39'0 0.3
2014-Nov-22 08:31N 55°59' E 012°39'0 0.1
2014-Nov-22 07:31N 55°59' E 012°39'3 3.2
2014-Nov-22 06:33N 55°60' E 012°45'0 0.0
2014-Nov-22 05:33N 55°60' E 012°45'0 0.0
2014-Nov-22 04:33N 55°60' E 012°45'0 0.0
2014-Nov-22 03:33N 55°60' E 012°45'0 0.0
2014-Nov-22 02:33N 55°60' E 012°45'0 0.0
2014-Nov-22 01:33N 55°60' E 012°45'0 0.0
2014-Nov-22 00:33N 55°60' E 012°45'0 0.0
2014-Nov-21 23:33N 55°60' E 012°45'0 0.0
2014-Nov-21 22:30N 55°60' E 012°45'0 0.0
2014-Nov-21 21:33N 55°60' E 012°45'0 0.0
2014-Nov-21 20:33N 55°60' E 012°45'0 0.0
2014-Nov-21 19:33N 55°60' E 012°45'0 0.0
2014-Nov-21 18:25N 55°60' E 012°45'0 0.0
2014-Nov-21 17:34N 55°60' E 012°45'0 0.0
2014-Nov-21 16:34N 55°60' E 012°45'0 0.0
2014-Nov-21 15:34N 55°60' E 012°45'0 0.0
2014-Nov-21 14:31N 55°60' E 012°45'0 0.0
2014-Nov-21 13:31N 55°60' E 012°45'0 0.0
2014-Nov-21 12:31N 55°60' E 012°45'0 0.0
2014-Nov-21 11:31N 55°60' E 012°45'0 0.0
2014-Nov-21 10:31N 55°60' E 012°45'0 0.0
2014-Nov-21 09:31N 55°60' E 012°45'0 0.0
2014-Nov-21 08:31N 55°60' E 012°45'0 0.0
2014-Nov-21 07:31N 55°60' E 012°45'0 0.0
2014-Nov-21 06:31N 55°60' E 012°45'0 0.0
2014-Nov-21 05:31N 55°60' E 012°45'0 0.0
2014-Nov-21 04:31N 55°60' E 012°45'0 0.0
2014-Nov-21 03:31N 55°60' E 012°45'0 0.0
2014-Nov-21 02:28N 55°60' E 012°45'0 0.0
2014-Nov-21 01:31N 55°60' E 012°45'0 0.0
2014-Nov-21 00:31N 55°60' E 012°45'0 0.0
2014-Nov-20 23:31N 55°60' E 012°45'0 0.0
2014-Nov-20 22:31N 55°60' E 012°45'0 0.0
2014-Nov-20 21:31N 55°60' E 012°45'0 0.0
2014-Nov-20 20:28N 55°60' E 012°45'0 0.0
2014-Nov-20 19:31N 55°60' E 012°45'0 0.0
2014-Nov-20 18:31N 55°60' E 012°45'0 0.0
2014-Nov-20 17:31N 55°60' E 012°45'0 0.0
2014-Nov-20 16:31N 55°60' E 012°45'0 0.0
2014-Nov-20 15:31N 55°60' E 012°45'0 0.0
2014-Nov-20 14:31N 55°60' E 012°45'0 0.0
2014-Nov-20 13:31N 55°60' E 012°45'0 0.0
2014-Nov-20 10:31N 55°60' E 012°45'0 0.0
2014-Nov-20 09:31N 55°60' E 012°45'0 0.0
2014-Nov-20 08:31N 55°60' E 012°45'0 0.0
2014-Nov-20 07:31N 55°60' E 012°45'0 0.0
2014-Nov-20 06:31N 55°60' E 012°45'0 0.0
2014-Nov-20 05:31N 55°60' E 012°45'0 0.0
2014-Nov-20 04:31N 55°60' E 012°45'0 0.0
2014-Nov-20 03:31N 55°60' E 012°45'0 0.0
2014-Nov-20 02:31N 55°60' E 012°45'0 0.0
2014-Nov-20 01:31N 55°60' E 012°45'0 0.0
2014-Nov-20 00:31N 55°60' E 012°45'0 0.0
2014-Nov-19 23:31N 55°60' E 012°45'0 0.0
2014-Nov-19 22:31N 55°60' E 012°45'0 0.0
2014-Nov-19 21:31N 55°60' E 012°45'0 0.0
2014-Nov-19 20:31N 55°60' E 012°45'0 0.0
2014-Nov-19 19:31N 55°60' E 012°45'0 0.0
2014-Nov-19 18:31N 55°60' E 012°45'0 0.0
2014-Nov-19 17:31N 55°60' E 012°45'0 0.0
2014-Nov-19 16:31N 55°60' E 012°45'0 0.0
2014-Nov-19 15:31N 55°60' E 012°45'0 0.0
2014-Nov-19 14:31N 55°60' E 012°45'0 0.0
2014-Nov-19 13:31N 55°60' E 012°45'0 0.0
2014-Nov-19 12:31N 55°60' E 012°45'0 0.0
2014-Nov-19 11:31N 55°60' E 012°45'0 0.0
2014-Nov-19 10:31N 55°60' E 012°45'0 0.0
2014-Nov-19 09:31N 55°60' E 012°45'0 0.0
2014-Nov-19 08:31N 55°60' E 012°45'0 0.0
2014-Nov-19 07:31N 55°60' E 012°45'0 0.0
2014-Nov-19 06:31N 55°60' E 012°45'0 0.0
2014-Nov-19 05:25N 55°60' E 012°45'0 0.0
2014-Nov-19 04:31N 55°60' E 012°45'0 0.0
2014-Nov-19 03:31N 55°60' E 012°45'0 0.0
2014-Nov-19 02:31N 55°60' E 012°45'0 0.0
2014-Nov-19 01:28N 55°60' E 012°45'0 0.0
2014-Nov-19 00:31N 55°60' E 012°45'0 0.0
2014-Nov-18 23:31N 55°60' E 012°45'0 0.0
2014-Nov-18 22:31N 55°60' E 012°45'0 0.0
2014-Nov-18 21:31N 55°60' E 012°45'0 0.0
2014-Nov-18 20:31N 55°60' E 012°45'0 0.0
2014-Nov-18 19:31N 55°60' E 012°45'0 0.0
2014-Nov-18 18:31N 55°60' E 012°45'0 0.0
2014-Nov-18 17:31N 55°60' E 012°45'0 0.0
2014-Nov-18 16:31N 55°60' E 012°45'0 0.0
2014-Nov-18 15:31N 55°60' E 012°45'0 0.0
2014-Nov-18 14:31N 55°60' E 012°45'0 0.0
2014-Nov-18 13:31N 55°60' E 012°45'0 0.0
2014-Nov-18 12:25N 55°60' E 012°45'0 0.0
2014-Nov-18 11:31N 55°60' E 012°45'0 0.0
2014-Nov-18 10:31N 55°60' E 012°45'0 0.0
2014-Nov-18 09:31N 55°60' E 012°45'0 0.0
2014-Nov-18 08:31N 55°60' E 012°45'0 0.0
2014-Nov-18 07:31N 55°60' E 012°45'0 0.0
2014-Nov-18 06:31N 55°60' E 012°45'0 0.0
2014-Nov-18 05:31N 55°60' E 012°45'0 0.0
2014-Nov-18 04:31N 55°60' E 012°45'0 0.0
2014-Nov-18 03:31N 55°60' E 012°45'0 0.0
2014-Nov-18 02:31N 55°60' E 012°45'0 0.0
2014-Nov-18 01:31N 55°60' E 012°45'0 0.0
2014-Nov-18 00:31N 55°60' E 012°45'0 0.0
2014-Nov-17 23:31N 55°60' E 012°45'0 0.0
2014-Nov-17 22:28N 55°60' E 012°45'0 0.0
2014-Nov-17 21:28N 55°60' E 012°45'0 0.0
2014-Nov-17 20:31N 55°60' E 012°45'0 0.0
2014-Nov-17 19:31N 55°60' E 012°45'0 0.0
2014-Nov-17 18:31N 55°60' E 012°45'0 0.0
2014-Nov-17 17:31N 55°60' E 012°45'0 0.0
2014-Nov-17 16:31N 55°60' E 012°45'0 0.0
2014-Nov-17 15:31N 55°60' E 012°45'0 0.0
2014-Nov-17 14:31N 55°60' E 012°45'0 0.0
2014-Nov-17 13:31N 55°60' E 012°45'0 0.0
2014-Nov-17 12:31N 55°60' E 012°45'0 0.0
2014-Nov-17 11:31N 55°60' E 012°45'0 0.0
2014-Nov-17 10:31N 55°60' E 012°45'0 0.0
2014-Nov-17 09:31N 55°60' E 012°45'0 0.0
2014-Nov-17 08:31N 55°60' E 012°45'0 0.0
2014-Nov-17 07:31N 55°60' E 012°45'0 0.0
2014-Nov-17 06:31N 55°60' E 012°45'0 0.0
2014-Nov-17 05:31N 55°60' E 012°45'0 0.0
2014-Nov-17 04:32N 55°60' E 012°45'0 0.0
2014-Nov-17 03:32N 55°60' E 012°45'0 0.0
2014-Nov-17 02:31N 55°60' E 012°45'0 0.0
2014-Nov-17 01:32N 55°60' E 012°45'0 0.0
2014-Nov-17 00:32N 55°60' E 012°45'0 0.0
2014-Nov-16 23:32N 55°60' E 012°45'0 0.0
2014-Nov-16 22:32N 55°60' E 012°45'0 0.0
2014-Nov-16 21:32N 55°60' E 012°45'0 0.0
2014-Nov-16 20:32N 55°60' E 012°45'0 0.0
2014-Nov-16 19:32N 55°60' E 012°45'0 0.0
2014-Nov-16 18:32N 55°60' E 012°45'0 0.0
2014-Nov-16 17:32N 55°60' E 012°45'0 0.0
2014-Nov-16 16:11N 55°60' E 012°45'0 0.0
2014-Nov-16 15:32N 55°60' E 012°45'0 0.0
2014-Nov-16 14:32N 55°60' E 012°45'0 0.0
2014-Nov-16 13:32N 55°60' E 012°45'0 0.0
2014-Nov-16 12:32N 55°60' E 012°45'0 0.0
2014-Nov-16 11:32N 55°60' E 012°45'2 1.9
2014-Nov-16 10:33N 55°58' E 012°43'2 1.6
2014-Nov-16 09:33N 55°56' E 012°43'0 0.4
2014-Nov-16 08:32N 55°56' E 012°44'2 2.2
2014-Nov-16 07:33N 55°58' E 012°43'2 1.6
2014-Nov-16 06:31N 55°60' E 012°45'0 0.0
2014-Nov-16 05:31N 55°60' E 012°45'0 0.0
2014-Nov-16 04:28N 55°60' E 012°45'0 0.0
2014-Nov-16 03:31N 55°60' E 012°45'0 0.0
2014-Nov-16 02:31N 55°60' E 012°45'0 0.0
2014-Nov-16 01:31N 55°60' E 012°45'0 0.0
2014-Nov-16 00:31N 55°60' E 012°45'0 0.0
2014-Nov-15 23:31N 55°60' E 012°45'0 0.0
2014-Nov-15 22:31N 55°60' E 012°45'0 0.0
2014-Nov-15 21:31N 55°60' E 012°45'0 0.0
2014-Nov-15 20:31N 55°60' E 012°45'0 0.0
2014-Nov-15 19:28N 55°60' E 012°45'0 0.0
2014-Nov-15 18:28N 55°60' E 012°45'0 0.0
2014-Nov-15 17:31N 55°60' E 012°45'0 0.0
2014-Nov-15 16:25N 55°60' E 012°45'0 0.3
2014-Nov-15 15:33N 55°59' E 012°44'2 2.0
2014-Nov-15 14:33N 56°01' E 012°42'2 2.1
2014-Nov-15 13:33N 55°59' E 012°39'0 0.0
2014-Nov-15 12:34N 55°59' E 012°39'3 2.9
2014-Nov-15 11:33N 55°59' E 012°45'0 0.1
2014-Nov-15 10:32N 55°60' E 012°45'0 0.0
2014-Nov-15 09:32N 55°60' E 012°45'0 0.0
2014-Nov-15 08:32N 55°60' E 012°45'0 0.0
2014-Nov-15 07:29N 55°60' E 012°45'0 0.0
2014-Nov-15 06:32N 55°60' E 012°45'0 0.0
2014-Nov-15 05:32N 55°60' E 012°45'0 0.0
2014-Nov-15 04:32N 55°60' E 012°45'0 0.0
2014-Nov-15 03:32N 55°60' E 012°45'0 0.0
2014-Nov-15 02:29N 55°60' E 012°45'0 0.0
2014-Nov-15 01:32N 55°60' E 012°45'0 0.0
2014-Nov-15 00:32N 55°60' E 012°45'0 0.0
2014-Nov-14 23:32N 55°60' E 012°45'0 0.0
2014-Nov-14 22:32N 55°60' E 012°45'0 0.0
2014-Nov-14 21:32N 55°60' E 012°45'0 0.0
2014-Nov-14 20:32N 55°60' E 012°45'0 0.0
2014-Nov-14 19:32N 55°60' E 012°45'0 0.0
2014-Nov-14 18:32N 55°60' E 012°45'0 0.0
2014-Nov-14 17:32N 55°60' E 012°45'0 0.0
2014-Nov-14 16:32N 55°60' E 012°45'0 0.0
2014-Nov-14 15:32N 55°60' E 012°45'0 0.0
2014-Nov-14 14:32N 55°60' E 012°45'0 0.0
2014-Nov-14 12:32N 55°60' E 012°45'0 0.0
2014-Nov-14 11:32N 55°60' E 012°45'0 0.0
2014-Nov-14 10:32N 55°60' E 012°45'0 0.0
2014-Nov-14 09:32N 55°60' E 012°45'0 0.0
2014-Nov-14 08:32N 55°60' E 012°45'0 0.0
2014-Nov-14 07:32N 55°60' E 012°45'0 0.0
2014-Nov-14 06:32N 55°60' E 012°45'0 0.0
2014-Nov-14 05:32N 55°60' E 012°45'0 0.0
2014-Nov-14 04:32N 55°60' E 012°45'0 0.0
2014-Nov-14 03:32N 55°60' E 012°45'0 0.0
2014-Nov-14 02:32N 55°60' E 012°45'0 0.0
2014-Nov-14 01:32N 55°60' E 012°45'0 0.0
2014-Nov-14 00:32N 55°60' E 012°45'0 0.0
2014-Nov-13 23:32N 55°60' E 012°45'0 0.0
2014-Nov-13 22:32N 55°60' E 012°45'0 0.0
2014-Nov-13 21:32N 55°60' E 012°45'0 0.0
2014-Nov-13 20:32N 55°60' E 012°45'0 0.0
2014-Nov-13 19:32N 55°60' E 012°45'0 0.0
2014-Nov-13 18:32N 55°60' E 012°45'0 0.0
2014-Nov-13 17:32N 55°60' E 012°45'0 0.0
2014-Nov-13 16:32N 55°60' E 012°45'0 0.0
2014-Nov-13 15:32N 55°60' E 012°45'0 0.0
2014-Nov-13 14:32N 55°60' E 012°45'0 0.0
2014-Nov-13 13:32N 55°60' E 012°45'0 0.0
2014-Nov-13 12:32N 55°60' E 012°45'0 0.0
2014-Nov-13 11:32N 55°60' E 012°45'0 0.0
2014-Nov-13 10:32N 55°60' E 012°45'0 0.0
2014-Nov-13 09:32N 55°60' E 012°45'0 0.0
2014-Nov-13 08:32N 55°60' E 012°45'0 0.0
2014-Nov-13 07:29N 55°60' E 012°45'0 0.0
2014-Nov-13 06:32N 55°60' E 012°45'0 0.0
2014-Nov-13 05:32N 55°60' E 012°45'0 0.0
2014-Nov-13 04:32N 55°60' E 012°45'0 0.0
2014-Nov-13 03:32N 55°60' E 012°45'0 0.0
2014-Nov-13 02:32N 55°60' E 012°45'0 0.0
2014-Nov-13 01:32N 55°60' E 012°45'0 0.0
2014-Nov-13 00:32N 55°60' E 012°45'0 0.0
2014-Nov-12 23:32N 55°60' E 012°45'0 0.0
2014-Nov-12 22:32N 55°60' E 012°45'0 0.0
2014-Nov-12 21:32N 55°60' E 012°45'0 0.0
2014-Nov-12 20:32N 55°60' E 012°45'0 0.0
2014-Nov-12 19:32N 55°60' E 012°45'0 0.0
2014-Nov-12 18:32N 55°60' E 012°45'0 0.0
2014-Nov-12 17:32N 55°60' E 012°45'  

Dump ship's entire track history